Time;durP1;ratioP1;P1;durP2;ratioP2;P2;SDS_P1;SDS_P2;PMS_P1;PMS_P2;Temp;Humidity;BMP_temperature;BMP_pressure;BME280_temperature;BME280_humidity;BME280_pressure;Samples;Min_cycle;Max_cycle;Signal;HPM_P1;HPM_P2
2024/04/13 00:01:13;;;;;;;10.30;3.05;;;19.60;51.70;;;;;;6832951;25;20006;-75
2024/04/13 00:04:14;;;;;;;12.88;2.90;;;19.60;51.90;;;;;;6834859;26;20425;-76
2024/04/13 00:07:16;;;;;;;10.32;3.38;;;19.50;52.10;;;;;;6834451;26;19998;-75
2024/04/13 00:10:18;;;;;;;10.98;2.38;;;19.50;52.40;;;;;;6836460;26;20011;-72
2024/04/13 00:13:19;;;;;;;5.32;2.15;;;19.50;52.80;;;;;;6834755;26;20001;-74
2024/04/13 00:16:20;;;;;;;8.75;2.88;;;19.50;53.10;;;;;;6834705;26;19994;-75
2024/04/13 00:19:24;;;;;;;6.97;3.08;;;19.40;53.40;;;;;;6824815;26;20110;-77
2024/04/13 00:22:30;;;;;;;5.72;2.47;;;19.40;53.50;;;;;;6835756;26;19994;-75
2024/04/13 00:25:31;;;;;;;8.25;2.35;;;19.30;53.60;;;;;;6835956;26;20008;-75
2024/04/13 00:28:39;;;;;;;4.63;2.47;;;19.20;53.80;;;;;;6825652;26;20122;-75
2024/04/13 00:31:42;;;;;;;7.18;2.70;;;19.10;53.90;;;;;;6813155;26;20013;-73
2024/04/13 00:34:47;;;;;;;9.25;2.65;;;19.20;54.10;;;;;;6836585;25;20001;-74
2024/04/13 00:37:52;;;;;;;12.40;2.42;;;19.20;54.30;;;;;;6813175;26;20012;-74
2024/04/13 00:40:54;;;;;;;3.65;2.10;;;19.10;54.50;;;;;;6792842;26;20089;-76
2024/04/13 00:43:59;;;;;;;9.73;2.30;;;19.00;54.60;;;;;;6796708;26;20457;-75
2024/04/13 00:47:06;;;;;;;7.95;3.00;;;19.00;54.70;;;;;;6805431;26;20013;-76
2024/04/13 00:50:18;;;;;;;9.05;2.08;;;19.00;54.70;;;;;;6802867;26;20010;-75
2024/04/13 00:53:22;;;;;;;3.60;2.17;;;18.90;54.60;;;;;;6831262;25;20055;-74
2024/04/13 00:56:24;;;;;;;11.80;2.70;;;18.90;54.70;;;;;;6773153;26;20009;-75
2024/04/13 00:59:27;;;;;;;8.60;2.53;;;18.90;54.70;;;;;;6841528;26;19993;-75
2024/04/13 01:02:29;;;;;;;10.38;2.75;;;18.90;54.70;;;;;;6842343;26;19993;-75
2024/04/13 01:05:31;;;;;;;7.38;2.63;;;18.80;54.60;;;;;;6812183;26;20008;-74
2024/04/13 01:08:34;;;;;;;10.48;2.35;;;18.80;54.50;;;;;;6808117;26;20050;-73
2024/04/13 01:11:35;;;;;;;4.85;2.47;;;18.70;54.50;;;;;;6808427;26;20008;-76
2024/04/13 01:14:37;;;;;;;8.48;2.60;;;18.80;54.60;;;;;;6807019;26;20000;-74
2024/04/13 01:17:41;;;;;;;8.15;2.47;;;18.70;54.50;;;;;;6806699;26;20463;-75
2024/04/13 01:20:45;;;;;;;2.88;2.40;;;18.70;54.60;;;;;;6807875;26;20094;-74
2024/04/13 01:23:58;;;;;;;7.28;2.40;;;18.60;54.60;;;;;;6839245;26;20036;-72
2024/04/13 01:27:02;;;;;;;4.78;2.50;;;18.60;54.70;;;;;;6763235;26;20310;-74
2024/04/13 01:30:07;;;;;;;13.25;2.72;;;18.50;54.70;;;;;;6782548;26;20008;-75
2024/04/13 01:33:10;;;;;;;5.70;2.67;;;18.60;54.80;;;;;;6807182;26;20013;-75
2024/04/13 01:36:10;;;;;;;6.32;2.72;;;18.50;54.80;;;;;;6808341;25;20074;-75
2024/04/13 01:39:14;;;;;;;8.30;2.53;;;18.50;54.80;;;;;;6807865;26;19997;-76
2024/04/13 01:42:15;;;;;;;12.38;2.28;;;18.50;54.90;;;;;;6763093;26;19995;-75
2024/04/13 01:45:17;;;;;;;7.07;2.58;;;18.40;54.90;;;;;;6835350;25;20555;-76
2024/04/13 01:48:18;;;;;;;4.95;2.15;;;18.40;55.00;;;;;;6816687;26;20074;-73
2024/04/13 01:51:19;;;;;;;5.88;2.40;;;18.40;55.00;;;;;;6830751;25;20036;-75
2024/04/13 01:54:20;;;;;;;9.50;2.72;;;18.40;55.10;;;;;;6818992;26;19998;-74
2024/04/13 01:57:22;;;;;;;6.22;2.40;;;18.40;55.10;;;;;;6803193;26;20006;-74
2024/04/13 02:00:22;;;;;;;6.22;2.85;;;18.40;55.40;;;;;;6828442;26;20950;-75
2024/04/13 02:03:25;;;;;;;6.90;2.38;;;18.40;55.70;;;;;;6835632;26;20078;-76
2024/04/13 02:06:26;;;;;;;6.50;2.55;;;18.30;55.90;;;;;;6824647;26;19994;-73
2024/04/13 02:09:28;;;;;;;8.05;2.03;;;18.30;56.10;;;;;;6834420;26;19997;-74
2024/04/13 02:12:30;;;;;;;2.47;1.58;;;18.30;56.30;;;;;;6819453;25;19993;-75
2024/04/13 02:15:30;;;;;;;7.65;2.60;;;18.20;56.30;;;;;;6824813;26;19990;-70
2024/04/13 02:18:31;;;;;;;8.77;2.58;;;18.20;56.30;;;;;;6817245;26;20001;-75
2024/04/13 02:21:32;;;;;;;5.25;2.90;;;18.20;56.30;;;;;;6831096;26;20425;-75
2024/04/13 02:24:35;;;;;;;8.32;2.70;;;18.20;56.30;;;;;;6821053;26;20337;-75
2024/04/13 02:27:36;;;;;;;2.83;2.03;;;18.20;56.40;;;;;;6834096;26;20394;-74
2024/04/13 02:30:37;;;;;;;4.95;2.25;;;18.10;56.30;;;;;;6769977;26;20003;-74
2024/04/13 02:33:41;;;;;;;4.30;2.22;;;18.10;56.40;;;;;;6817725;26;20112;-75
2024/04/13 02:36:46;;;;;;;4.18;2.35;;;18.10;56.70;;;;;;6808413;26;19998;-75
2024/04/13 02:39:49;;;;;;;3.00;2.17;;;17.90;57.00;;;;;;6821112;26;20017;-74
2024/04/13 02:42:51;;;;;;;10.60;2.90;;;18.00;57.30;;;;;;6823020;25;20309;-76
2024/04/13 02:45:52;;;;;;;4.30;2.50;;;17.90;57.50;;;;;;6759561;26;20081;-75
2024/04/13 02:48:54;;;;;;;10.45;2.85;;;17.90;58.30;;;;;;6819669;25;20406;-76
2024/04/13 02:51:56;;;;;;;8.13;2.67;;;17.90;57.80;;;;;;6834917;25;20384;-74
2024/04/13 02:55:00;;;;;;;11.05;2.78;;;17.80;57.70;;;;;;6806175;26;20013;-74
2024/04/13 02:58:02;;;;;;;4.78;2.40;;;17.80;57.80;;;;;;6807317;26;20169;-75
2024/04/13 03:01:07;;;;;;;7.28;2.30;;;17.80;57.90;;;;;;6808045;26;20041;-75
2024/04/13 03:04:07;;;;;;;5.15;2.90;;;17.80;58.00;;;;;;6820941;25;20046;-75
2024/04/13 03:07:09;;;;;;;7.43;2.38;;;17.80;58.10;;;;;;6834457;26;19997;-75
2024/04/13 03:10:10;;;;;;;5.72;2.67;;;17.70;58.20;;;;;;6820330;26;20010;-73
2024/04/13 03:13:11;;;;;;;7.03;2.40;;;17.70;58.40;;;;;;6832552;26;20001;-75
2024/04/13 03:16:12;;;;;;;5.03;2.63;;;17.70;58.60;;;;;;6818536;26;20013;-76
2024/04/13 03:19:18;;;;;;;4.05;2.15;;;17.60;58.60;;;;;;6817626;26;20001;-75
2024/04/13 03:22:19;;;;;;;4.68;2.35;;;17.60;58.70;;;;;;6809182;26;20141;-75
2024/04/13 03:25:21;;;;;;;4.07;2.25;;;17.60;58.70;;;;;;6808985;26;20131;-74
2024/04/13 03:28:29;;;;;;;3.92;2.35;;;17.60;58.80;;;;;;6817773;26;20009;-75
2024/04/13 03:31:31;;;;;;;5.88;2.85;;;17.60;58.90;;;;;;6829099;26;19997;-76
2024/04/13 03:34:31;;;;;;;4.07;2.22;;;17.60;58.90;;;;;;6800671;26;20083;-75
2024/04/13 03:37:32;;;;;;;4.70;2.72;;;17.50;58.90;;;;;;6829603;25;20057;-76
2024/04/13 03:40:36;;;;;;;5.55;2.30;;;17.50;58.90;;;;;;6806097;26;20005;-75
2024/04/13 03:43:37;;;;;;;5.13;2.80;;;17.50;58.90;;;;;;6818510;26;20058;-75
2024/04/13 03:46:39;;;;;;;5.45;2.58;;;17.50;58.80;;;;;;6825831;26;20465;-74
2024/04/13 03:49:43;;;;;;;5.97;2.28;;;17.50;58.60;;;;;;6823504;26;20302;-75
2024/04/13 03:52:45;;;;;;;6.82;2.90;;;17.50;58.50;;;;;;6820163;26;20046;-74
2024/04/13 03:55:46;;;;;;;4.85;2.13;;;17.50;58.30;;;;;;6799243;26;20009;-72
2024/04/13 03:58:47;;;;;;;10.70;2.47;;;17.50;58.10;;;;;;6811895;26;20096;-74
2024/04/13 04:01:48;;;;;;;5.68;2.20;;;17.40;57.90;;;;;;6757496;26;20520;-76
2024/04/13 04:04:48;;;;;;;3.35;2.38;;;17.40;57.80;;;;;;6797112;26;20168;-75
2024/04/13 04:07:50;;;;;;;6.65;2.10;;;17.50;57.70;;;;;;6820752;26;20064;-75
2024/04/13 04:10:51;;;;;;;5.22;2.55;;;17.40;57.60;;;;;;6805006;26;20801;-75
2024/04/13 04:13:53;;;;;;;3.70;2.05;;;17.40;57.50;;;;;;6815379;26;20009;-75
2024/04/13 04:16:55;;;;;;;7.97;2.40;;;17.40;57.50;;;;;;6817018;26;20005;-75
2024/04/13 04:19:56;;;;;;;8.63;2.60;;;17.40;57.50;;;;;;6806189;26;20328;-74
2024/04/13 04:22:57;;;;;;;3.50;2.10;;;17.40;57.60;;;;;;6833734;26;19989;-75
2024/04/13 04:25:59;;;;;;;3.20;2.20;;;17.40;57.60;;;;;;6835954;25;19997;-74
2024/04/13 04:29:02;;;;;;;6.50;2.63;;;17.40;57.70;;;;;;6803648;25;19989;-75
2024/04/13 04:32:06;;;;;;;8.15;2.72;;;17.40;57.80;;;;;;6805399;26;19997;-74
2024/04/13 04:35:06;;;;;;;8.25;2.65;;;17.30;57.80;;;;;;6836674;26;20353;-75
2024/04/13 04:38:07;;;;;;;4.53;2.33;;;17.30;58.00;;;;;;6823796;25;19998;-75
2024/04/13 04:41:08;;;;;;;2.92;2.08;;;17.30;58.70;;;;;;6802657;26;20308;-74
2024/04/13 04:44:10;;;;;;;5.30;2.75;;;17.30;58.30;;;;;;6801491;26;20019;-76
2024/04/13 04:47:11;;;;;;;10.48;3.20;;;17.20;58.40;;;;;;6821772;26;21400;-74
2024/04/13 04:50:13;;;;;;;11.25;2.83;;;17.20;58.50;;;;;;6808657;26;19994;-74
2024/04/13 04:53:14;;;;;;;6.43;2.20;;;17.20;58.60;;;;;;6829802;26;20097;-77
2024/04/13 04:56:15;;;;;;;6.50;2.50;;;17.20;58.80;;;;;;6832314;26;19997;-75
2024/04/13 04:59:19;;;;;;;5.55;2.55;;;17.20;58.90;;;;;;6822305;26;20441;-72
2024/04/13 05:02:19;;;;;;;4.68;2.42;;;17.10;59.00;;;;;;6823222;25;19997;-74
2024/04/13 05:05:20;;;;;;;2.70;2.15;;;17.10;59.00;;;;;;6833533;25;20124;-75
2024/04/13 05:08:23;;;;;;;8.40;2.72;;;17.10;58.90;;;;;;6799729;26;20021;-75
2024/04/13 05:11:25;;;;;;;4.40;2.40;;;17.10;58.90;;;;;;6834121;25;20079;-75
2024/04/13 05:14:26;;;;;;;16.15;2.50;;;17.20;58.90;;;;;;6832164;26;20029;-75
2024/04/13 05:17:28;;;;;;;7.28;2.20;;;17.20;58.70;;;;;;6815004;26;19990;-77
2024/04/13 05:20:31;;;;;;;5.65;2.22;;;17.10;58.30;;;;;;6810942;26;20179;-75
2024/04/13 05:23:33;;;;;;;3.70;2.20;;;17.10;58.10;;;;;;6838702;26;20001;-75
2024/04/13 05:26:36;;;;;;;16.15;3.10;;;17.10;57.90;;;;;;6830671;26;20426;-73
2024/04/13 05:29:39;;;;;;;5.97;2.92;;;17.10;58.10;;;;;;6818340;26;19997;-75
2024/04/13 05:32:41;;;;;;;8.93;3.45;;;17.10;58.40;;;;;;6833547;26;20769;-75
2024/04/13 05:35:43;;;;;;;11.25;2.85;;;17.10;58.70;;;;;;6835034;26;20032;-74
2024/04/13 05:38:47;;;;;;;3.60;2.30;;;17.10;59.00;;;;;;6813488;26;19997;-75
2024/04/13 05:41:47;;;;;;;8.75;2.53;;;17.10;59.10;;;;;;6820699;26;19998;-75
2024/04/13 05:44:48;;;;;;;5.05;2.60;;;16.90;59.10;;;;;;6792267;26;19993;-73
2024/04/13 05:47:50;;;;;;;4.10;2.63;;;17.10;59.90;;;;;;6818094;25;20106;-74
2024/04/13 05:50:55;;;;;;;5.55;2.83;;;17.10;59.50;;;;;;6807364;26;20441;-74
2024/04/13 05:53:57;;;;;;;6.00;3.13;;;17.00;59.60;;;;;;6802182;26;20058;-75
2024/04/13 05:56:58;;;;;;;9.23;3.13;;;17.00;59.60;;;;;;6820710;26;20017;-73
2024/04/13 05:59:59;;;;;;;10.73;3.45;;;17.00;59.70;;;;;;6779713;26;20006;-73
2024/04/13 06:03:02;;;;;;;8.90;2.92;;;17.10;59.80;;;;;;6764937;26;20048;-75
2024/04/13 06:06:03;;;;;;;4.03;2.72;;;17.10;59.80;;;;;;6771490;26;20008;-76
2024/04/13 06:09:07;;;;;;;5.63;2.90;;;17.10;59.90;;;;;;6780874;26;19995;-74
2024/04/13 06:12:08;;;;;;;5.38;2.85;;;17.10;60.00;;;;;;6817556;26;20014;-73
2024/04/13 06:15:10;;;;;;;10.25;3.05;;;17.10;60.00;;;;;;6829777;26;20001;-76
2024/04/13 06:18:12;;;;;;;7.30;3.60;;;17.10;59.90;;;;;;6790911;26;20109;-74
2024/04/13 06:21:13;;;;;;;6.20;2.88;;;17.20;60.00;;;;;;6792590;26;20455;-74
2024/04/13 06:24:14;;;;;;;4.28;3.03;;;17.20;60.00;;;;;;6789686;25;20009;-74
2024/04/13 06:27:15;;;;;;;6.80;3.15;;;17.20;60.20;;;;;;6790468;26;20011;-75
2024/04/13 06:30:16;;;;;;;7.28;3.20;;;17.20;60.30;;;;;;6790418;26;20069;-76
2024/04/13 06:33:17;;;;;;;4.90;2.67;;;17.20;60.30;;;;;;6801143;26;20524;-75
2024/04/13 06:36:18;;;;;;;10.00;3.35;;;17.20;60.10;;;;;;6791646;25;20387;-74
2024/04/13 06:39:19;;;;;;;4.90;2.63;;;17.30;60.10;;;;;;6818580;25;20350;-76
2024/04/13 06:42:20;;;;;;;8.57;3.58;;;17.30;60.10;;;;;;6811006;25;20002;-76
2024/04/13 06:45:21;;;;;;;4.50;2.78;;;17.30;60.00;;;;;;6788779;26;20487;-76
2024/04/13 06:48:22;;;;;;;7.93;3.42;;;17.40;60.00;;;;;;6833164;25;20008;-75
2024/04/13 06:51:24;;;;;;;11.70;3.17;;;17.50;59.90;;;;;;6823994;25;19998;-75
2024/04/13 06:54:25;;;;;;;6.18;3.85;;;17.70;59.90;;;;;;6793045;25;20005;-77
2024/04/13 06:57:26;;;;;;;7.63;4.03;;;17.70;59.60;;;;;;6793640;25;20038;-76
2024/04/13 07:00:27;;;;;;;7.95;3.67;;;17.80;59.60;;;;;;6783580;26;20004;-76
2024/04/13 07:03:29;;;;;;;8.75;3.58;;;17.90;59.40;;;;;;6805292;25;20009;-75
2024/04/13 07:06:34;;;;;;;9.55;3.42;;;18.00;59.20;;;;;;6769022;25;20413;-73
2024/04/13 07:09:37;;;;;;;5.13;3.20;;;18.10;59.20;;;;;;6828248;25;20012;-77
2024/04/13 07:12:38;;;;;;;7.30;3.83;;;18.10;59.00;;;;;;6833602;25;20210;-77
2024/04/13 07:15:39;;;;;;;10.18;4.35;;;18.20;58.90;;;;;;6766465;25;20081;-74
2024/04/13 07:18:41;;;;;;;8.20;5.20;;;18.40;58.90;;;;;;6773146;26;20008;-78
2024/04/13 07:21:42;;;;;;;6.10;3.80;;;18.60;58.70;;;;;;6790565;25;20055;-77
2024/04/13 07:24:44;;;;;;;6.43;3.35;;;18.70;58.10;;;;;;6821269;25;20073;-77
2024/04/13 07:27:45;;;;;;;11.57;3.58;;;18.70;57.90;;;;;;6801554;26;20008;-76
2024/04/13 07:30:47;;;;;;;17.85;3.35;;;19.00;57.70;;;;;;6794031;26;20013;-76
2024/04/13 07:33:48;;;;;;;6.03;3.10;;;19.20;57.40;;;;;;6820706;25;20025;-79
2024/04/13 07:36:49;;;;;;;4.97;3.15;;;19.30;57.10;;;;;;6818146;25;20395;-76
2024/04/13 07:39:50;;;;;;;9.60;3.78;;;19.40;56.70;;;;;;6797428;25;20036;-73
2024/04/13 07:42:52;;;;;;;9.52;3.95;;;19.50;56.40;;;;;;6791256;25;20049;-74
2024/04/13 07:45:55;;;;;;;8.95;4.03;;;19.70;56.10;;;;;;6822244;25;20411;-77
2024/04/13 07:48:56;;;;;;;9.38;3.95;;;19.80;55.80;;;;;;6774084;26;20575;-74
2024/04/13 07:51:59;;;;;;;9.85;2.97;;;19.90;55.40;;;;;;6796411;25;20005;-74
2024/04/13 07:55:01;;;;;;;9.85;3.38;;;20.00;55.20;;;;;;6793344;25;20055;-76
2024/04/13 07:58:03;;;;;;;11.35;3.65;;;20.10;54.90;;;;;;6819707;25;20001;-78
2024/04/13 08:01:04;;;;;;;9.55;3.22;;;20.10;54.60;;;;;;6752028;26;20078;-79
2024/04/13 08:04:05;;;;;;;11.20;3.17;;;20.20;54.50;;;;;;6833311;25;20133;-75
2024/04/13 08:07:06;;;;;;;7.20;3.20;;;20.30;54.30;;;;;;6816166;25;20468;-74
2024/04/13 08:10:07;;;;;;;9.23;2.60;;;20.40;54.10;;;;;;6816733;25;19993;-76
2024/04/13 08:13:10;;;;;;;4.60;2.15;;;20.50;53.70;;;;;;6781740;25;20013;-79
2024/04/13 08:16:11;;;;;;;10.45;2.88;;;20.50;53.40;;;;;;6793025;25;20005;-79
2024/04/13 08:19:16;;;;;;;5.13;2.55;;;20.60;53.10;;;;;;6750058;25;20055;-77
2024/04/13 08:22:18;;;;;;;12.32;2.80;;;20.80;53.00;;;;;;6794613;26;20231;-75
2024/04/13 08:25:24;;;;;;;5.68;2.47;;;20.90;52.70;;;;;;6800002;25;20086;-74
2024/04/13 08:28:29;;;;;;;4.63;2.47;;;21.10;52.40;;;;;;6785866;25;20314;-73
2024/04/13 08:31:30;;;;;;;6.60;3.20;;;21.20;52.10;;;;;;6784575;25;20073;-76
2024/04/13 08:34:34;;;;;;;17.58;3.63;;;21.40;51.90;;;;;;6788548;25;20110;-78
2024/04/13 08:37:37;;;;;;;13.93;4.60;;;21.50;51.40;;;;;;6769912;26;20449;-77
2024/04/13 08:40:41;;;;;;;6.20;2.80;;;21.70;51.30;;;;;;6802427;25;20011;-77
2024/04/13 08:43:42;;;;;;;4.75;2.80;;;21.70;51.10;;;;;;6777238;25;20777;-78
2024/04/13 08:46:44;;;;;;;10.73;4.57;;;21.80;50.70;;;;;;6792470;26;20021;-76
2024/04/13 08:49:48;;;;;;;5.55;3.45;;;22.00;50.60;;;;;;6786011;25;20031;-76
2024/04/13 08:52:49;;;;;;;11.93;4.13;;;22.20;50.30;;;;;;6824369;25;19993;-74
2024/04/13 08:55:54;;;;;;;10.38;5.07;;;22.30;50.00;;;;;;6833851;26;20077;-75
2024/04/13 08:59:00;;;;;;;10.70;3.75;;;22.50;49.80;;;;;;6834383;26;20306;-75
2024/04/13 09:02:04;;;;;;;6.88;3.60;;;22.60;49.40;;;;;;6798385;25;20014;-75
2024/04/13 09:05:08;;;;;;;12.32;4.22;;;22.70;49.00;;;;;;6786533;26;20083;-75
2024/04/13 09:08:13;;;;;;;10.50;3.92;;;22.80;48.70;;;;;;6818585;25;20808;-75
2024/04/13 09:11:17;;;;;;;8.98;3.00;;;22.80;48.60;;;;;;6834891;25;20058;-76
2024/04/13 09:14:18;;;;;;;6.72;2.80;;;22.90;48.30;;;;;;6835290;25;19993;-74
2024/04/13 09:17:20;;;;;;;6.28;2.45;;;23.00;48.00;;;;;;6827618;25;20452;-75
2024/04/13 09:20:24;;;;;;;10.18;3.53;;;23.10;47.90;;;;;;6838921;25;19993;-76
2024/04/13 09:23:29;;;;;;;3.03;1.98;;;23.20;47.60;;;;;;6828824;25;20173;-74
2024/04/13 09:26:40;;;;;;;9.15;2.17;;;23.30;47.00;;;;;;6797404;26;20001;-75
2024/04/13 09:29:43;;;;;;;6.45;2.42;;;23.40;46.60;;;;;;6839228;25;20004;-73
2024/04/13 09:32:45;;;;;;;4.65;2.45;;;23.50;46.30;;;;;;6840831;26;20074;-75
2024/04/13 09:35:58;;;;;;;8.95;2.50;;;23.50;46.30;;;;;;6803115;25;20009;-73
2024/04/13 09:39:04;;;;;;;8.10;2.95;;;23.60;46.00;;;;;;6827105;25;20034;-74
2024/04/13 09:42:12;;;;;;;12.57;3.63;;;23.70;46.00;;;;;;6766978;26;20002;-75
2024/04/13 09:45:13;;;;;;;6.28;2.20;;;23.80;45.20;;;;;;6776478;25;20462;-74
2024/04/13 09:48:14;;;;;;;6.90;3.08;;;23.90;44.80;;;;;;6826724;25;19990;-74
2024/04/13 09:51:18;;;;;;;8.48;2.45;;;23.90;44.90;;;;;;6814603;25;20443;-75
2024/04/13 09:54:26;;;;;;;8.35;2.67;;;24.00;44.70;;;;;;6765601;26;19998;-73
2024/04/13 09:57:28;;;;;;;3.53;1.75;;;24.00;44.40;;;;;;6836512;26;20441;-74
2024/04/13 10:00:29;;;;;;;12.10;3.65;;;24.00;44.60;;;;;;6778574;26;20638;-75
2024/04/13 10:03:32;;;;;;;15.38;2.75;;;24.10;44.70;;;;;;6838924;26;20028;-75
2024/04/13 10:06:35;;;;;;;10.25;4.03;;;24.20;44.30;;;;;;6831793;26;20042;-76
2024/04/13 10:10:00;;;;;;;9.07;2.63;;;24.30;44.00;;;;;;6841573;25;20348;-74
2024/04/13 10:13:03;;;;;;;7.28;2.00;;;24.40;44.00;;;;;;6843035;25;20008;-79
2024/04/13 10:16:07;;;;;;;4.47;2.20;;;24.50;43.80;;;;;;6838429;26;20045;-75
2024/04/13 10:19:17;;;;;;;6.40;2.28;;;24.70;43.60;;;;;;6844116;25;20261;-76
2024/04/13 10:22:21;;;;;;;6.70;3.08;;;24.80;43.30;;;;;;6840338;25;20812;-71
2024/04/13 10:25:30;;;;;;;20.17;4.78;;;24.90;43.20;;;;;;6836764;25;20016;-72
2024/04/13 10:28:31;;;;;;;9.65;2.83;;;25.00;43.00;;;;;;6821351;25;20021;-73
2024/04/13 10:31:32;;;;;;;3.70;2.35;;;25.20;43.00;;;;;;6802369;25;20025;-71
2024/04/13 10:34:34;;;;;;;11.85;1.90;;;25.20;42.70;;;;;;6822501;25;20007;-69
2024/04/13 10:37:36;;;;;;;9.93;2.47;;;25.30;42.50;;;;;;6834596;25;20334;-71
2024/04/13 10:40:38;;;;;;;6.65;2.67;;;25.40;42.20;;;;;;6826668;25;20035;-72
2024/04/13 10:43:40;;;;;;;11.65;2.65;;;25.60;41.80;;;;;;6820014;25;19998;-69
2024/04/13 10:46:41;;;;;;;6.47;3.60;;;25.90;41.00;;;;;;6810278;25;20055;-71
2024/04/13 10:49:43;;;;;;;7.55;2.72;;;26.20;40.10;;;;;;6837352;26;20128;-72
2024/04/13 10:52:48;;;;;;;9.75;2.30;;;26.70;39.50;;;;;;6830884;25;20001;-69
2024/04/13 10:55:55;;;;;;;10.18;3.35;;;27.20;38.70;;;;;;6819532;25;20006;-70
2024/04/13 10:58:57;;;;;;;;;;;27.70;38.20;;;;;;6829868;25;19994;-69
2024/04/13 11:01:59;;;;;;;10.70;2.90;;;28.10;37.50;;;;;;6829319;25;19924;-70
2024/04/13 11:05:00;;;;;;;6.63;2.90;;;28.40;37.20;;;;;;6820011;25;19993;-69
2024/04/13 11:08:01;;;;;;;12.20;3.60;;;28.60;37.00;;;;;;6813549;25;20029;-69
2024/04/13 11:11:02;;;;;;;8.40;2.35;;;28.70;36.70;;;;;;6827763;25;19993;-69
2024/04/13 11:14:03;;;;;;;9.50;3.00;;;28.90;36.60;;;;;;6782026;25;20002;-68
2024/04/13 11:17:04;;;;;;;5.45;2.33;;;29.20;36.50;;;;;;6819191;25;20463;-69
2024/04/13 11:20:10;;;;;;;13.70;4.00;;;29.50;36.10;;;;;;6814901;25;20003;-70
2024/04/13 11:23:12;;;;;;;7.28;2.15;;;29.70;35.50;;;;;;6836291;26;20013;-70
2024/04/13 11:26:12;;;;;;;6.13;2.47;;;29.80;35.30;;;;;;6835780;25;20009;-70
2024/04/13 11:29:14;;;;;;;7.45;2.63;;;30.00;35.30;;;;;;6786229;26;20095;-70
2024/04/13 11:32:16;;;;;;;5.47;2.42;;;30.00;35.10;;;;;;6796751;25;19997;-70
2024/04/13 11:35:19;;;;;;;7.05;2.20;;;30.20;35.00;;;;;;6793145;26;20150;-71
2024/04/13 11:38:21;;;;;;;13.48;5.38;;;30.40;34.80;;;;;;6820443;25;20518;-70
2024/04/13 11:41:24;;;;;;;7.60;2.50;;;30.50;34.70;;;;;;6804050;26;19994;-71
2024/04/13 11:44:24;;;;;;;7.03;2.65;;;30.60;35.00;;;;;;6832694;25;20078;-72
2024/04/13 11:47:26;;;;;;;7.07;3.10;;;30.80;33.70;;;;;;6831673;25;20108;-69
2024/04/13 11:50:29;;;;;;;5.15;1.85;;;31.00;33.10;;;;;;6798152;25;20404;-71
2024/04/13 11:53:30;;;;;;;5.40;2.10;;;31.30;32.50;;;;;;6793744;25;20006;-71
2024/04/13 11:56:40;;;;;;;9.00;2.00;;;31.60;31.80;;;;;;6797952;26;20012;-70
2024/04/13 11:59:41;;;;;;;11.00;1.90;;;32.00;30.70;;;;;;6804718;25;20425;-70
2024/04/13 12:02:44;;;;;;;7.53;1.90;;;32.20;29.90;;;;;;6803802;26;19993;-70
2024/04/13 12:05:47;;;;;;;7.95;1.65;;;32.50;29.60;;;;;;6760354;26;20002;-69
2024/04/13 12:08:48;;;;;;;7.15;1.83;;;32.80;29.00;;;;;;6799510;25;19994;-70
2024/04/13 12:11:49;;;;;;;12.57;1.60;;;33.00;28.50;;;;;;6815188;25;20648;-71
2024/04/13 12:14:52;;;;;;;7.40;2.17;;;33.30;28.30;;;;;;6795328;25;19997;-71
2024/04/13 12:17:54;;;;;;;4.97;1.88;;;33.60;27.60;;;;;;6792231;25;20016;-70
2024/04/13 12:20:55;;;;;;;4.63;1.40;;;33.60;27.10;;;;;;6794883;25;20016;-70
2024/04/13 12:23:57;;;;;;;7.50;1.88;;;33.80;26.90;;;;;;6790623;25;20128;-70
2024/04/13 12:26:58;;;;;;;4.70;1.80;;;34.00;26.90;;;;;;6785323;25;20046;-70
2024/04/13 12:29:59;;;;;;;6.40;1.95;;;34.50;26.60;;;;;;6806092;25;19998;-70
2024/04/13 12:33:00;;;;;;;3.58;1.20;;;34.80;26.40;;;;;;6789195;25;20347;-72
2024/04/13 12:36:01;;;;;;;3.53;1.92;;;35.10;26.20;;;;;;6778894;26;20191;-70
2024/04/13 12:39:03;;;;;;;7.03;1.75;;;35.50;25.90;;;;;;6817039;25;20009;-69
2024/04/13 12:42:04;;;;;;;12.00;1.70;;;36.00;25.40;;;;;;6771766;26;20104;-71
2024/04/13 12:45:05;;;;;;;4.20;1.40;;;36.50;25.00;;;;;;6807400;25;19993;-73
2024/04/13 12:48:07;;;;;;;3.92;1.52;;;36.80;24.40;;;;;;6833083;25;19994;-72
2024/04/13 12:51:09;;;;;;;10.43;2.03;;;37.20;24.30;;;;;;6801880;25;19994;-71
2024/04/13 12:54:10;;;;;;;2.58;1.33;;;37.80;24.10;;;;;;6809293;25;20025;-72
2024/04/13 12:57:11;;;;;;;4.13;1.70;;;38.30;23.50;;;;;;6801059;26;19993;-72
2024/04/13 13:00:13;;;;;;;4.93;1.48;;;38.70;23.00;;;;;;6837937;25;20038;-71
2024/04/13 13:03:14;;;;;;;5.75;1.48;;;39.10;22.60;;;;;;6777259;26;20080;-70
2024/04/13 13:06:16;;;;;;;9.85;1.98;;;39.50;22.30;;;;;;6762506;26;20030;-70
2024/04/13 13:09:17;;;;;;;6.18;2.03;;;40.20;22.10;;;;;;6807573;26;20177;-69
2024/04/13 13:12:18;;;;;;;3.22;1.52;;;40.80;21.40;;;;;;6835885;25;20700;-72
2024/04/13 13:15:20;;;;;;;7.13;1.92;;;41.30;21.00;;;;;;6762568;26;20059;-72
2024/04/13 13:18:21;;;;;;;4.43;1.52;;;41.80;20.70;;;;;;6803794;26;20342;-70
2024/04/13 13:21:22;;;;;;;6.38;2.13;;;42.20;20.20;;;;;;6808460;26;20013;-70
2024/04/13 13:24:24;;;;;;;4.60;1.83;;;42.30;20.10;;;;;;6808017;25;19993;-72
2024/04/13 13:27:27;;;;;;;4.10;2.03;;;42.60;20.00;;;;;;6809177;26;19994;-71
2024/04/13 13:30:34;;;;;;;19.75;2.05;;;42.90;19.80;;;;;;6829879;25;20016;-69
2024/04/13 13:33:35;;;;;;;6.20;1.65;;;43.20;19.60;;;;;;6788431;25;20043;-70
2024/04/13 13:36:37;;;;;;;7.90;1.83;;;43.50;19.30;;;;;;6802395;25;20005;-74
2024/04/13 13:39:38;;;;;;;10.02;2.70;;;43.40;18.90;;;;;;6778506;25;20001;-70
2024/04/13 13:42:41;;;;;;;7.78;1.95;;;43.40;19.00;;;;;;6838927;25;20478;-70
2024/04/13 13:45:42;;;;;;;7.30;1.98;;;43.40;18.90;;;;;;6793711;25;20024;-71
2024/04/13 13:48:43;;;;;;;10.23;2.55;;;43.10;18.50;;;;;;6839652;25;20058;-71
2024/04/13 13:51:44;;;;;;;3.95;1.70;;;42.90;19.10;;;;;;6832020;25;20031;-73
2024/04/13 13:54:46;;;;;;;6.28;2.30;;;43.10;18.90;;;;;;6773938;26;20120;-71
2024/04/13 13:57:47;;;;;;;6.72;2.05;;;43.60;18.90;;;;;;6805127;25;20013;-72
2024/04/13 14:00:48;;;;;;;5.15;1.58;;;43.70;18.70;;;;;;6807539;26;20076;-70
2024/04/13 14:03:49;;;;;;;7.47;1.85;;;43.70;18.30;;;;;;6790354;26;20005;-70
2024/04/13 14:06:52;;;;;;;4.90;1.75;;;43.50;18.20;;;;;;6795812;26;20027;-71
2024/04/13 14:09:54;;;;;;;5.63;2.10;;;43.30;18.40;;;;;;6795872;25;20001;-70
2024/04/13 14:12:55;;;;;;;6.97;1.63;;;42.50;19.10;;;;;;6776664;26;20117;-72
2024/04/13 14:15:56;;;;;;;6.63;2.22;;;41.30;19.80;;;;;;6840122;25;20021;-70
2024/04/13 14:18:57;;;;;;;7.50;1.60;;;40.20;20.70;;;;;;6810348;26;20001;-71
2024/04/13 14:21:58;;;;;;;4.72;1.50;;;39.10;21.50;;;;;;6841906;25;19997;-71
2024/04/13 14:25:00;;;;;;;6.82;2.08;;;38.10;22.10;;;;;;6829689;25;19997;-70
2024/04/13 14:28:01;;;;;;;4.03;1.55;;;37.20;23.20;;;;;;6807784;26;20013;-71
2024/04/13 14:31:02;;;;;;;8.70;2.28;;;36.40;23.40;;;;;;6774997;26;20002;-72
2024/04/13 14:34:03;;;;;;;6.07;1.90;;;35.50;24.10;;;;;;6806460;26;19997;-72
2024/04/13 14:37:06;;;;;;;4.90;2.10;;;34.90;24.70;;;;;;6838603;26;20410;-72
2024/04/13 14:40:07;;;;;;;6.78;1.85;;;34.30;25.20;;;;;;6802517;25;20001;-70
2024/04/13 14:43:08;;;;;;;2.03;1.50;;;33.80;25.70;;;;;;6774083;25;19990;-71
2024/04/13 14:46:09;;;;;;;6.85;2.13;;;33.30;26.20;;;;;;6732112;26;20735;-71
2024/04/13 14:49:10;;;;;;;7.82;2.35;;;32.90;26.50;;;;;;6792727;26;20608;-72
2024/04/13 14:52:11;;;;;;;10.73;1.90;;;32.50;26.90;;;;;;6835994;25;20005;-70
2024/04/13 14:55:12;;;;;;;4.93;2.30;;;32.20;27.40;;;;;;6762109;25;20006;-70
2024/04/13 14:58:13;;;;;;;8.65;2.40;;;32.00;27.60;;;;;;6820219;25;20008;-72
2024/04/13 15:01:14;;;;;;;7.65;2.00;;;31.90;27.80;;;;;;6838268;26;19997;-72
2024/04/13 15:04:16;;;;;;;8.70;2.15;;;31.70;28.00;;;;;;6785859;26;20061;-72
2024/04/13 15:07:18;;;;;;;4.68;1.80;;;31.60;28.10;;;;;;6806012;26;20484;-73
2024/04/13 15:10:19;;;;;;;8.88;2.30;;;31.40;28.20;;;;;;6796737;26;19989;-72
2024/04/13 15:13:21;;;;;;;5.05;1.90;;;31.30;28.40;;;;;;6798508;25;20081;-68
2024/04/13 15:16:22;;;;;;;6.85;2.35;;;31.20;28.70;;;;;;6784519;25;19998;-70
2024/04/13 15:19:25;;;;;;;13.25;2.63;;;31.20;29.00;;;;;;6827776;25;20018;-72
2024/04/13 15:22:26;;;;;;;15.30;2.30;;;31.00;28.90;;;;;;6790099;26;19998;-71
2024/04/13 15:25:29;;;;;;;9.13;2.17;;;31.00;29.00;;;;;;6797162;26;19997;-71
2024/04/13 15:28:32;;;;;;;4.78;1.63;;;30.90;29.00;;;;;;6823129;25;20572;-71
2024/04/13 15:31:33;;;;;;;4.20;1.67;;;30.90;29.10;;;;;;6811851;25;20001;-71
2024/04/13 15:34:35;;;;;;;6.22;1.52;;;30.90;28.90;;;;;;6759547;25;20023;-72
2024/04/13 15:37:37;;;;;;;4.43;1.80;;;30.90;28.90;;;;;;6786299;25;20135;-71
2024/04/13 15:40:38;;;;;;;4.72;1.80;;;30.90;29.10;;;;;;6748049;25;19997;-73
2024/04/13 15:43:39;;;;;;;7.50;1.88;;;30.90;29.10;;;;;;6772076;25;20358;-71
2024/04/13 15:46:40;;;;;;;7.85;1.95;;;31.00;29.10;;;;;;6825266;25;20002;-70